P120 Amazonas — PWAZ — position and weather

sailwx.info

Track history (hours):
 
Tides and Currents Weather Stations Pressure Air Temp Water Temp Dewpoint Dewpoint Depression Visibility Wind Speed Wind Dir Waves Ship Positions

P120 Amazonas

Last reported at 2017-Apr-25 22:41 UTC. Time now 2017-Apr-26 21:32 UTC.
Position S 22°52' W 043°08'.

Length 91 m; draft 4.5 m.

Type: Military. MMSI: 710493000.

Date/timePositionNaut miles runAvg speedWind from/ knotsBaromVisibWave heightAir tempDewpointWater temp
2017-Apr-25 22:41S 22°52' W 043°08'0 0.0
2017-Apr-25 22:30S 22°52' W 043°08'1 1.8
2017-Apr-25 22:00S 22°52' W 043°09'611.2
2017-Apr-25 21:30S 22°58' W 043°08'9 0.6
2017-Apr-25 05:52S 23°04' W 043°14'513.7
2017-Apr-25 05:30S 23°01' W 043°10'611.4
2017-Apr-25 05:00S 22°56' W 043°08'4 8.2
2017-Apr-25 04:30S 22°52' W 043°09'1 1.3
2017-Apr-25 03:55S 22°52' W 043°08'0 0.0
2017-Apr-25 03:30S 22°52' W 043°08'0 0.0
2017-Apr-25 03:00S 22°52' W 043°08'0 0.0
2017-Apr-25 02:30S 22°52' W 043°08'0 0.0
2017-Apr-25 02:00S 22°52' W 043°08'0 0.0
2017-Apr-25 01:30S 22°52' W 043°08'0 0.0
2017-Apr-25 01:00S 22°52' W 043°08'0 0.0
2017-Apr-25 00:30S 22°52' W 043°08'0 0.0
2017-Apr-25 00:00S 22°52' W 043°08'0 0.0
2017-Apr-24 23:30S 22°52' W 043°08'0 0.0
2017-Apr-24 23:00S 22°52' W 043°08'0 0.0
2017-Apr-24 22:30S 22°52' W 043°08'0 0.0
2017-Apr-24 22:00S 22°52' W 043°08'0 0.0
2017-Apr-24 21:30S 22°52' W 043°08'0 0.0
2017-Apr-24 21:00S 22°52' W 043°08'0 0.0
2017-Apr-24 20:30S 22°52' W 043°08'0 0.0
2017-Apr-24 20:00S 22°52' W 043°08'0 0.0
2017-Apr-24 19:30S 22°52' W 043°08'0 0.0
2017-Apr-24 19:00S 22°52' W 043°08'0 0.0
2017-Apr-24 18:30S 22°52' W 043°08'0 0.0
2017-Apr-24 18:00S 22°52' W 043°08'0 0.0
2017-Apr-24 17:30S 22°52' W 043°08'0 0.0
2017-Apr-24 17:00S 22°52' W 043°08'0 0.0
2017-Apr-24 16:30S 22°52' W 043°08'0 0.0
2017-Apr-24 16:00S 22°52' W 043°08'0 0.0
2017-Apr-24 15:30S 22°52' W 043°08'0 0.0
2017-Apr-24 15:00S 22°52' W 043°08'0 0.0
2017-Apr-24 14:30S 22°52' W 043°08'0 0.0
2017-Apr-24 13:30S 22°52' W 043°08'0 0.0
2017-Apr-24 13:00S 22°52' W 043°08'0 0.0
2017-Apr-24 12:30S 22°52' W 043°08'0 0.0
2017-Apr-24 12:00S 22°52' W 043°08'0 0.0
2017-Apr-24 11:30S 22°52' W 043°08'0 0.0
2017-Apr-24 11:00S 22°52' W 043°08'0 0.0
2017-Apr-24 10:30S 22°52' W 043°08'0 0.0
2017-Apr-24 10:00S 22°52' W 043°08'0 0.0
2017-Apr-24 09:30S 22°52' W 043°08'0 0.0
2017-Apr-24 09:00S 22°52' W 043°08'0 0.0
2017-Apr-24 08:30S 22°52' W 043°08'0 0.0
2017-Apr-24 08:00S 22°52' W 043°08'0 0.0
2017-Apr-24 07:30S 22°52' W 043°08'0 0.0
2017-Apr-24 07:00S 22°52' W 043°08'0 0.0
2017-Apr-24 06:30S 22°52' W 043°08'0 0.0
2017-Apr-24 06:00S 22°52' W 043°08'0 0.0
2017-Apr-24 05:30S 22°52' W 043°08'0 0.0
2017-Apr-24 05:00S 22°52' W 043°08'0 0.0
2017-Apr-24 04:30S 22°52' W 043°08'0 0.0
2017-Apr-24 04:00S 22°52' W 043°08'0 0.0
2017-Apr-24 03:30S 22°52' W 043°08'0 0.0
2017-Apr-24 03:00S 22°52' W 043°08'0 0.0
2017-Apr-24 02:30S 22°52' W 043°08'0 0.0
2017-Apr-24 02:00S 22°52' W 043°08'0 0.0
2017-Apr-24 01:30S 22°52' W 043°08'0 0.0
2017-Apr-24 01:00S 22°52' W 043°08'0 0.0
2017-Apr-24 00:30S 22°52' W 043°08'0 0.0
2017-Apr-24 00:00S 22°52' W 043°08'0 0.0
2017-Apr-23 23:30S 22°52' W 043°08'0 0.0
2017-Apr-23 23:00S 22°52' W 043°08'0 0.0
2017-Apr-23 22:30S 22°52' W 043°08'0 0.0
2017-Apr-23 22:00S 22°52' W 043°08'0 0.0
2017-Apr-23 21:30S 22°52' W 043°08'0 0.0
2017-Apr-23 21:00S 22°52' W 043°08'0 0.0
2017-Apr-23 20:30S 22°52' W 043°08'0 0.0
2017-Apr-23 20:00S 22°52' W 043°08'0 0.0
2017-Apr-23 19:30S 22°52' W 043°08'0 0.0
2017-Apr-23 19:00S 22°52' W 043°08'0 0.0
2017-Apr-23 18:30S 22°52' W 043°08'0 0.0
2017-Apr-23 18:00S 22°52' W 043°08'0 0.0
2017-Apr-23 17:30S 22°52' W 043°08'0 0.0
2017-Apr-23 17:00S 22°52' W 043°08'0 0.0
2017-Apr-23 16:30S 22°52' W 043°08'0 0.0
2017-Apr-23 16:00S 22°52' W 043°08'0 0.0
2017-Apr-23 15:30S 22°52' W 043°08'0 0.0
2017-Apr-23 15:00S 22°52' W 043°08'0 0.0
2017-Apr-23 14:00S 22°52' W 043°08'0 0.0
2017-Apr-23 13:30S 22°52' W 043°08'0 0.0
2017-Apr-23 13:00S 22°52' W 043°08'0 0.0
2017-Apr-23 12:30S 22°52' W 043°08'0 0.0
2017-Apr-23 12:00S 22°52' W 043°08'0 0.0
2017-Apr-23 11:30S 22°52' W 043°08'0 0.0
2017-Apr-23 11:00S 22°52' W 043°08'0 0.0
2017-Apr-23 10:30S 22°52' W 043°08'0 0.0
2017-Apr-23 10:00S 22°52' W 043°08'0 0.0
2017-Apr-23 09:30S 22°52' W 043°08'0 0.0
2017-Apr-23 09:00S 22°52' W 043°08'0 0.0
2017-Apr-23 08:30S 22°52' W 043°08'0 0.0
2017-Apr-23 08:00S 22°52' W 043°08'0 0.0
2017-Apr-23 07:30S 22°52' W 043°08'0 0.0
2017-Apr-23 07:00S 22°52' W 043°08'0 0.0
2017-Apr-23 06:30S 22°52' W 043°08'0 0.0
2017-Apr-23 06:00S 22°52' W 043°08'0 0.0
2017-Apr-23 05:30S 22°52' W 043°08'0 0.0
2017-Apr-23 05:00S 22°52' W 043°08'0 0.0
2017-Apr-23 04:30S 22°52' W 043°08'0 0.0
2017-Apr-23 04:00S 22°52' W 043°08'0 0.0
2017-Apr-23 03:29S 22°52' W 043°08'0 0.0
2017-Apr-23 03:00S 22°52' W 043°08'0 0.0
2017-Apr-23 02:30S 22°52' W 043°08'0 0.0
2017-Apr-23 02:00S 22°52' W 043°08'0 0.0
2017-Apr-23 01:30S 22°52' W 043°08'0 0.0
2017-Apr-23 01:00S 22°52' W 043°08'0 0.0
2017-Apr-23 00:30S 22°52' W 043°08'0 0.0
2017-Apr-23 00:00S 22°52' W 043°08'0 0.0
2017-Apr-22 23:30S 22°52' W 043°08'0 0.0
2017-Apr-22 23:00S 22°52' W 043°08'0 0.0
2017-Apr-22 22:30S 22°52' W 043°08'0 0.0
2017-Apr-22 22:00S 22°52' W 043°08'0 0.0
2017-Apr-22 21:30S 22°52' W 043°08'0 0.0
2017-Apr-22 21:00S 22°52' W 043°08'0 0.0
2017-Apr-22 20:30S 22°52' W 043°08'0 0.0
2017-Apr-22 20:00S 22°52' W 043°08'0 0.0
2017-Apr-22 19:30S 22°52' W 043°08'0 0.0
2017-Apr-22 19:00S 22°52' W 043°08'0 0.0
2017-Apr-22 18:30S 22°52' W 043°08'0 0.0
2017-Apr-22 18:00S 22°52' W 043°08'0 0.0
2017-Apr-22 17:30S 22°52' W 043°08'0 0.0
2017-Apr-22 17:00S 22°52' W 043°08'0 0.0
2017-Apr-22 16:30S 22°52' W 043°08'0 0.0
2017-Apr-22 16:00S 22°52' W 043°08'0 0.0
2017-Apr-22 15:30S 22°52' W 043°08'0 0.0
2017-Apr-22 15:00S 22°52' W 043°08'0 0.0
2017-Apr-22 14:30S 22°52' W 043°08'0 0.0
2017-Apr-22 13:30S 22°52' W 043°08'0 0.0
2017-Apr-22 13:00S 22°52' W 043°08'0 0.0
2017-Apr-22 12:30S 22°52' W 043°08'0 0.0
2017-Apr-22 12:00S 22°52' W 043°08'0 0.0
2017-Apr-22 11:30S 22°52' W 043°08'0 0.0
2017-Apr-22 11:00S 22°52' W 043°08'0 0.0
2017-Apr-22 10:30S 22°52' W 043°08'0 0.0
2017-Apr-22 10:00S 22°52' W 043°08'0 0.0
2017-Apr-22 09:30S 22°52' W 043°08'0 0.0
2017-Apr-22 09:00S 22°52' W 043°08'0 0.0
2017-Apr-22 08:30S 22°52' W 043°08'0 0.0
2017-Apr-22 08:00S 22°52' W 043°08'0 0.0
2017-Apr-22 07:30S 22°52' W 043°08'0 0.0
2017-Apr-22 07:00S 22°52' W 043°08'0 0.0
2017-Apr-22 06:30S 22°52' W 043°08'0 0.0
2017-Apr-22 06:00S 22°52' W 043°08'0 0.0
2017-Apr-22 05:30S 22°52' W 043°08'0 0.0
2017-Apr-22 05:00S 22°52' W 043°08'0 0.0
2017-Apr-22 04:30S 22°52' W 043°08'0 0.0
2017-Apr-22 04:00S 22°52' W 043°08'0 0.0
2017-Apr-22 03:30S 22°52' W 043°08'0 0.0
2017-Apr-22 03:00S 22°52' W 043°08'0 0.0
2017-Apr-22 02:30S 22°52' W 043°08'0 0.0
2017-Apr-22 02:00S 22°52' W 043°08'0 0.0
2017-Apr-22 01:30S 22°52' W 043°08'0 0.0
2017-Apr-22 01:00S 22°52' W 043°08'0 0.0
2017-Apr-22 00:30S 22°52' W 043°08'0 0.0
2017-Apr-22 00:00S 22°52' W 043°08'0 0.0
2017-Apr-21 23:30S 22°52' W 043°08'0 0.0
2017-Apr-21 23:00S 22°52' W 043°08'0 0.0
2017-Apr-21 22:30S 22°52' W 043°08'0 0.0
2017-Apr-21 22:00S 22°52' W 043°08'0 0.0
2017-Apr-21 21:30S 22°52' W 043°08'0 0.0
2017-Apr-21 21:00S 22°52' W 043°08'0 0.0
2017-Apr-21 20:30S 22°52' W 043°08'0 0.0
2017-Apr-21 20:00S 22°52' W 043°08'0 0.1
2017-Apr-21 19:30S 22°52' W 043°08'0 0.0
2017-Apr-21 19:00S 22°52' W 043°08'0 0.0
2017-Apr-21 18:30S 22°52' W 043°08'0 0.0
2017-Apr-21 18:00S 22°52' W 043°08'0 0.0
2017-Apr-21 17:30S 22°52' W 043°08'0 0.0
2017-Apr-21 17:00S 22°52' W 043°08'0 0.0
2017-Apr-21 16:30S 22°52' W 043°08'0 0.0
2017-Apr-21 16:00S 22°52' W 043°08'0 0.0
2017-Apr-21 15:30S 22°52' W 043°08'0 0.0
2017-Apr-21 15:00S 22°52' W 043°08'0 0.0
2017-Apr-21 14:30S 22°52' W 043°08'0 0.0
2017-Apr-21 13:30S 22°52' W 043°08'0 0.0
2017-Apr-21 13:00S 22°52' W 043°08'0 0.0
2017-Apr-21 12:30S 22°52' W 043°08'0 0.0
2017-Apr-21 12:00S 22°52' W 043°08'0 0.0
2017-Apr-21 11:30S 22°52' W 043°08'0 0.0
2017-Apr-21 11:00S 22°52' W 043°08'0 0.0
2017-Apr-21 10:30S 22°52' W 043°08'0 0.0
2017-Apr-21 10:00S 22°52' W 043°08'0 0.0
2017-Apr-21 09:30S 22°52' W 043°08'0 0.0
2017-Apr-21 09:00S 22°52' W 043°08'0 0.0
2017-Apr-21 08:30S 22°52' W 043°08'0 0.0
2017-Apr-21 08:00S 22°52' W 043°08'0 0.0
2017-Apr-21 07:30S 22°52' W 043°08'0 0.0
2017-Apr-21 07:00S 22°52' W 043°08'0 0.0
2017-Apr-21 06:30S 22°52' W 043°08'0 0.0
2017-Apr-21 06:00S 22°52' W 043°08'0 0.0
2017-Apr-21 05:30S 22°52' W 043°08'0 0.0
2017-Apr-21 05:00S 22°52' W 043°08'0 0.0
2017-Apr-21 04:30S 22°52' W 043°08'0 0.0
2017-Apr-21 04:00S 22°52' W 043°08'0 0.0
2017-Apr-21 03:30S 22°52' W 043°08'0 0.0
2017-Apr-21 03:00S 22°52' W 043°08'0 0.0
2017-Apr-21 02:30S 22°52' W 043°08'0 0.0
2017-Apr-21 02:00S 22°52' W 043°08'0 0.0
2017-Apr-21 01:30S 22°52' W 043°08'0 0.0
2017-Apr-21 01:00S 22°52' W 043°08'0 0.0
2017-Apr-21 00:30S 22°52' W 043°08'0 0.0
2017-Apr-21 00:00S 22°52' W 043°08'0 0.0
2017-Apr-20 23:30S 22°52' W 043°08'0 0.0
2017-Apr-20 23:00S 22°52' W 043°08'0 0.0
2017-Apr-20 22:30S 22°52' W 043°08'0 0.0
2017-Apr-20 22:00S 22°52' W 043°08'0 0.0
2017-Apr-20 21:30S 22°52' W 043°08'0 0.0
2017-Apr-20 21:00S 22°52' W 043°08'0 0.0
2017-Apr-20 20:30S 22°52' W 043°08'0 0.0
2017-Apr-20 20:00S 22°52' W 043°08'0 0.0
2017-Apr-20 19:30S 22°52' W 043°08'0 0.0
2017-Apr-20 19:00S 22°52' W 043°08'0 0.0
2017-Apr-20 18:30S 22°52' W 043°08'0 0.0
2017-Apr-20 18:00S 22°52' W 043°08'0 0.0
2017-Apr-20 17:30S 22°52' W 043°08'0 0.0
2017-Apr-20 17:00S 22°52' W 043°08'0 0.0
2017-Apr-20 16:30S 22°52' W 043°08'0 0.0
2017-Apr-20 16:00S 22°52' W 043°08'0 0.0
2017-Apr-20 15:30S 22°52' W 043°08'0 0.0
2017-Apr-20 15:00S 22°52' W 043°08'0 0.0
2017-Apr-20 14:00S 22°52' W 043°08'0 0.0
2017-Apr-20 13:30S 22°52' W 043°08'0 0.0
2017-Apr-20 12:17S 22°52' W 043°08'0 0.0
2017-Apr-20 12:00S 22°52' W 043°08'0 0.0
2017-Apr-20 11:30S 22°52' W 043°08'0 0.0
2017-Apr-20 11:00S 22°52' W 043°08'0 0.0
2017-Apr-20 10:30S 22°52' W 043°08'0 0.0
2017-Apr-20 10:00S 22°52' W 043°08'0 0.0
2017-Apr-20 09:30S 22°52' W 043°08'0 0.0
2017-Apr-20 09:00S 22°52' W 043°08'0 0.0
2017-Apr-20 08:30S 22°52' W 043°08'0 0.0
2017-Apr-20 08:00S 22°52' W 043°08'0 0.0
2017-Apr-20 07:30S 22°52' W 043°08'0 0.0
2017-Apr-20 07:00S 22°52' W 043°08'0 0.0
2017-Apr-20 06:30S 22°52' W 043°08'0 0.0
2017-Apr-20 06:00S 22°52' W 043°08'0 0.0
2017-Apr-20 05:30S 22°52' W 043°08'0 0.0
2017-Apr-20 05:00S 22°52' W 043°08'0 0.0
2017-Apr-20 04:30S 22°52' W 043°08'0 0.0
2017-Apr-20 04:00S 22°52' W 043°08'0 0.0
2017-Apr-20 03:30S 22°52' W 043°08'0 0.0
2017-Apr-20 03:00S 22°52' W 043°08'0 0.0
2017-Apr-20 02:30S 22°52' W 043°08'0 0.0
2017-Apr-20 02:00S 22°52' W 043°08'0 0.0
2017-Apr-20 01:30S 22°52' W 043°08'0 0.0
2017-Apr-20 01:00S 22°52' W 043°08'0 0.0
2017-Apr-20 00:30S 22°52' W 043°08'0 0.0
2017-Apr-20 00:00S 22°52' W 043°08'0 0.0
2017-Apr-19 23:30S 22°52' W 043°08'0 0.0
2017-Apr-19 23:00S 22°52' W 043°08'0 0.0
2017-Apr-19 22:30S 22°52' W 043°08'0 0.0
2017-Apr-19 22:00S 22°52' W 043°08'0 0.0
2017-Apr-19 21:30S 22°52' W 043°08'0 0.0
2017-Apr-19 21:00S 22°52' W 043°08'0 0.0
2017-Apr-19 20:30S 22°52' W 043°08'0 0.0
2017-Apr-19 20:00S 22°52' W 043°08'0 0.0
2017-Apr-19 19:30S 22°52' W 043°08'0 0.1
2017-Apr-19 19:00S 22°52' W 043°08'0 0.0
2017-Apr-19 18:30S 22°52' W 043°08'0 0.1
2017-Apr-19 18:00S 22°52' W 043°08'0 0.8
2017-Apr-19 17:30S 22°52' W 043°09'2 4.5
2017-Apr-19 17:00S 22°54' W 043°09'610.8
2017-Apr-19 16:30S 22°59' W 043°07'9 7.0
2017-Apr-19 15:15S 23°07' W 043°02'1 4.0
2017-Apr-19 14:59S 23°06' W 043°01'5 5.7
2017-Apr-19 14:02S 23°05' W 043°06'610.8
2017-Apr-19 13:29S 22°59' W 043°08'5 9.8
2017-Apr-19 13:00S 22°54' W 043°09'  
Track history (hours):
 
Tides and Currents Weather Stations Pressure Air Temp Water Temp Dewpoint Dewpoint Depression Visibility Wind Speed Wind Dir Waves Ship Positions

P120 Amazonas

Last reported at 2017-Apr-25 22:41 UTC. Time now 2017-Apr-26 21:32 UTC.
Position S 22°52' W 043°08'.

Length 91 m; draft 4.5 m.

Type: Military. MMSI: 710493000.

Date/timePositionNaut miles runAvg speedWind from/ knotsBaromVisibWave heightAir tempDewpointWater temp
2017-Apr-25 22:41S 22°52' W 043°08'0 0.0
2017-Apr-25 22:30S 22°52' W 043°08'1 1.8
2017-Apr-25 22:00S 22°52' W 043°09'611.2
2017-Apr-25 21:30S 22°58' W 043°08'9 0.6
2017-Apr-25 05:52S 23°04' W 043°14'513.7
2017-Apr-25 05:30S 23°01' W 043°10'611.4
2017-Apr-25 05:00S 22°56' W 043°08'4 8.2
2017-Apr-25 04:30S 22°52' W 043°09'1 1.3
2017-Apr-25 03:55S 22°52' W 043°08'0 0.0
2017-Apr-25 03:30S 22°52' W 043°08'0 0.0
2017-Apr-25 03:00S 22°52' W 043°08'0 0.0
2017-Apr-25 02:30S 22°52' W 043°08'0 0.0
2017-Apr-25 02:00S 22°52' W 043°08'0 0.0
2017-Apr-25 01:30S 22°52' W 043°08'0 0.0
2017-Apr-25 01:00S 22°52' W 043°08'0 0.0
2017-Apr-25 00:30S 22°52' W 043°08'0 0.0
2017-Apr-25 00:00S 22°52' W 043°08'0 0.0
2017-Apr-24 23:30S 22°52' W 043°08'0 0.0
2017-Apr-24 23:00S 22°52' W 043°08'0 0.0
2017-Apr-24 22:30S 22°52' W 043°08'0 0.0
2017-Apr-24 22:00S 22°52' W 043°08'0 0.0
2017-Apr-24 21:30S 22°52' W 043°08'0 0.0
2017-Apr-24 21:00S 22°52' W 043°08'0 0.0
2017-Apr-24 20:30S 22°52' W 043°08'0 0.0
2017-Apr-24 20:00S 22°52' W 043°08'0 0.0
2017-Apr-24 19:30S 22°52' W 043°08'0 0.0
2017-Apr-24 19:00S 22°52' W 043°08'0 0.0
2017-Apr-24 18:30S 22°52' W 043°08'0 0.0
2017-Apr-24 18:00S 22°52' W 043°08'0 0.0
2017-Apr-24 17:30S 22°52' W 043°08'0 0.0
2017-Apr-24 17:00S 22°52' W 043°08'0 0.0
2017-Apr-24 16:30S 22°52' W 043°08'0 0.0
2017-Apr-24 16:00S 22°52' W 043°08'0 0.0
2017-Apr-24 15:30S 22°52' W 043°08'0 0.0
2017-Apr-24 15:00S 22°52' W 043°08'0 0.0
2017-Apr-24 14:30S 22°52' W 043°08'0 0.0
2017-Apr-24 13:30S 22°52' W 043°08'0 0.0
2017-Apr-24 13:00S 22°52' W 043°08'0 0.0
2017-Apr-24 12:30S 22°52' W 043°08'0 0.0
2017-Apr-24 12:00S 22°52' W 043°08'0 0.0
2017-Apr-24 11:30S 22°52' W 043°08'0 0.0
2017-Apr-24 11:00S 22°52' W 043°08'0 0.0
2017-Apr-24 10:30S 22°52' W 043°08'0 0.0
2017-Apr-24 10:00S 22°52' W 043°08'0 0.0
2017-Apr-24 09:30S 22°52' W 043°08'0 0.0
2017-Apr-24 09:00S 22°52' W 043°08'0 0.0
2017-Apr-24 08:30S 22°52' W 043°08'0 0.0
2017-Apr-24 08:00S 22°52' W 043°08'0 0.0
2017-Apr-24 07:30S 22°52' W 043°08'0 0.0
2017-Apr-24 07:00S 22°52' W 043°08'0 0.0
2017-Apr-24 06:30S 22°52' W 043°08'0 0.0
2017-Apr-24 06:00S 22°52' W 043°08'0 0.0
2017-Apr-24 05:30S 22°52' W 043°08'0 0.0
2017-Apr-24 05:00S 22°52' W 043°08'0 0.0
2017-Apr-24 04:30S 22°52' W 043°08'0 0.0
2017-Apr-24 04:00S 22°52' W 043°08'0 0.0
2017-Apr-24 03:30S 22°52' W 043°08'0 0.0
2017-Apr-24 03:00S 22°52' W 043°08'0 0.0
2017-Apr-24 02:30S 22°52' W 043°08'0 0.0
2017-Apr-24 02:00S 22°52' W 043°08'0 0.0
2017-Apr-24 01:30S 22°52' W 043°08'0 0.0
2017-Apr-24 01:00S 22°52' W 043°08'0 0.0
2017-Apr-24 00:30S 22°52' W 043°08'0 0.0
2017-Apr-24 00:00S 22°52' W 043°08'0 0.0
2017-Apr-23 23:30S 22°52' W 043°08'0 0.0
2017-Apr-23 23:00S 22°52' W 043°08'0 0.0
2017-Apr-23 22:30S 22°52' W 043°08'0 0.0
2017-Apr-23 22:00S 22°52' W 043°08'0 0.0
2017-Apr-23 21:30S 22°52' W 043°08'0 0.0
2017-Apr-23 21:00S 22°52' W 043°08'0 0.0
2017-Apr-23 20:30S 22°52' W 043°08'0 0.0
2017-Apr-23 20:00S 22°52' W 043°08'0 0.0
2017-Apr-23 19:30S 22°52' W 043°08'0 0.0
2017-Apr-23 19:00S 22°52' W 043°08'0 0.0
2017-Apr-23 18:30S 22°52' W 043°08'0 0.0
2017-Apr-23 18:00S 22°52' W 043°08'0 0.0
2017-Apr-23 17:30S 22°52' W 043°08'0 0.0
2017-Apr-23 17:00S 22°52' W 043°08'0 0.0
2017-Apr-23 16:30S 22°52' W 043°08'0 0.0
2017-Apr-23 16:00S 22°52' W 043°08'0 0.0
2017-Apr-23 15:30S 22°52' W 043°08'0 0.0
2017-Apr-23 15:00S 22°52' W 043°08'0 0.0
2017-Apr-23 14:00S 22°52' W 043°08'0 0.0
2017-Apr-23 13:30S 22°52' W 043°08'0 0.0
2017-Apr-23 13:00S 22°52' W 043°08'0 0.0
2017-Apr-23 12:30S 22°52' W 043°08'0 0.0
2017-Apr-23 12:00S 22°52' W 043°08'0 0.0
2017-Apr-23 11:30S 22°52' W 043°08'0 0.0
2017-Apr-23 11:00S 22°52' W 043°08'0 0.0
2017-Apr-23 10:30S 22°52' W 043°08'0 0.0
2017-Apr-23 10:00S 22°52' W 043°08'0 0.0
2017-Apr-23 09:30S 22°52' W 043°08'0 0.0
2017-Apr-23 09:00S 22°52' W 043°08'0 0.0
2017-Apr-23 08:30S 22°52' W 043°08'0 0.0
2017-Apr-23 08:00S 22°52' W 043°08'0 0.0
2017-Apr-23 07:30S 22°52' W 043°08'0 0.0
2017-Apr-23 07:00S 22°52' W 043°08'0 0.0
2017-Apr-23 06:30S 22°52' W 043°08'0 0.0
2017-Apr-23 06:00S 22°52' W 043°08'0 0.0
2017-Apr-23 05:30S 22°52' W 043°08'0 0.0
2017-Apr-23 05:00S 22°52' W 043°08'0 0.0
2017-Apr-23 04:30S 22°52' W 043°08'0 0.0
2017-Apr-23 04:00S 22°52' W 043°08'0 0.0
2017-Apr-23 03:29S 22°52' W 043°08'0 0.0
2017-Apr-23 03:00S 22°52' W 043°08'0 0.0
2017-Apr-23 02:30S 22°52' W 043°08'0 0.0
2017-Apr-23 02:00S 22°52' W 043°08'0 0.0
2017-Apr-23 01:30S 22°52' W 043°08'0 0.0
2017-Apr-23 01:00S 22°52' W 043°08'0 0.0
2017-Apr-23 00:30S 22°52' W 043°08'0 0.0
2017-Apr-23 00:00S 22°52' W 043°08'0 0.0
2017-Apr-22 23:30S 22°52' W 043°08'0 0.0
2017-Apr-22 23:00S 22°52' W 043°08'0 0.0
2017-Apr-22 22:30S 22°52' W 043°08'0 0.0
2017-Apr-22 22:00S 22°52' W 043°08'0 0.0
2017-Apr-22 21:30S 22°52' W 043°08'0 0.0
2017-Apr-22 21:00S 22°52' W 043°08'0 0.0
2017-Apr-22 20:30S 22°52' W 043°08'0 0.0
2017-Apr-22 20:00S 22°52' W 043°08'0 0.0
2017-Apr-22 19:30S 22°52' W 043°08'0 0.0
2017-Apr-22 19:00S 22°52' W 043°08'0 0.0
2017-Apr-22 18:30S 22°52' W 043°08'0 0.0
2017-Apr-22 18:00S 22°52' W 043°08'0 0.0
2017-Apr-22 17:30S 22°52' W 043°08'0 0.0
2017-Apr-22 17:00S 22°52' W 043°08'0 0.0
2017-Apr-22 16:30S 22°52' W 043°08'0 0.0
2017-Apr-22 16:00S 22°52' W 043°08'0 0.0
2017-Apr-22 15:30S 22°52' W 043°08'0 0.0
2017-Apr-22 15:00S 22°52' W 043°08'0 0.0
2017-Apr-22 14:30S 22°52' W 043°08'0 0.0
2017-Apr-22 13:30S 22°52' W 043°08'0 0.0
2017-Apr-22 13:00S 22°52' W 043°08'0 0.0
2017-Apr-22 12:30S 22°52' W 043°08'0 0.0
2017-Apr-22 12:00S 22°52' W 043°08'0 0.0
2017-Apr-22 11:30S 22°52' W 043°08'0 0.0
2017-Apr-22 11:00S 22°52' W 043°08'0 0.0
2017-Apr-22 10:30S 22°52' W 043°08'0 0.0
2017-Apr-22 10:00S 22°52' W 043°08'0 0.0
2017-Apr-22 09:30S 22°52' W 043°08'0 0.0
2017-Apr-22 09:00S 22°52' W 043°08'0 0.0
2017-Apr-22 08:30S 22°52' W 043°08'0 0.0
2017-Apr-22 08:00S 22°52' W 043°08'0 0.0
2017-Apr-22 07:30S 22°52' W 043°08'0 0.0
2017-Apr-22 07:00S 22°52' W 043°08'0 0.0
2017-Apr-22 06:30S 22°52' W 043°08'0 0.0
2017-Apr-22 06:00S 22°52' W 043°08'0 0.0
2017-Apr-22 05:30S 22°52' W 043°08'0 0.0
2017-Apr-22 05:00S 22°52' W 043°08'0 0.0
2017-Apr-22 04:30S 22°52' W 043°08'0 0.0
2017-Apr-22 04:00S 22°52' W 043°08'0 0.0
2017-Apr-22 03:30S 22°52' W 043°08'0 0.0
2017-Apr-22 03:00S 22°52' W 043°08'0 0.0
2017-Apr-22 02:30S 22°52' W 043°08'0 0.0
2017-Apr-22 02:00S 22°52' W 043°08'0 0.0
2017-Apr-22 01:30S 22°52' W 043°08'0 0.0
2017-Apr-22 01:00S 22°52' W 043°08'0 0.0
2017-Apr-22 00:30S 22°52' W 043°08'0 0.0
2017-Apr-22 00:00S 22°52' W 043°08'0 0.0
2017-Apr-21 23:30S 22°52' W 043°08'0 0.0
2017-Apr-21 23:00S 22°52' W 043°08'0 0.0
2017-Apr-21 22:30S 22°52' W 043°08'0 0.0
2017-Apr-21 22:00S 22°52' W 043°08'0 0.0
2017-Apr-21 21:30S 22°52' W 043°08'0 0.0
2017-Apr-21 21:00S 22°52' W 043°08'0 0.0
2017-Apr-21 20:30S 22°52' W 043°08'0 0.0
2017-Apr-21 20:00S 22°52' W 043°08'0 0.1
2017-Apr-21 19:30S 22°52' W 043°08'0 0.0
2017-Apr-21 19:00S 22°52' W 043°08'0 0.0
2017-Apr-21 18:30S 22°52' W 043°08'0 0.0
2017-Apr-21 18:00S 22°52' W 043°08'0 0.0
2017-Apr-21 17:30S 22°52' W 043°08'0 0.0
2017-Apr-21 17:00S 22°52' W 043°08'0 0.0
2017-Apr-21 16:30S 22°52' W 043°08'0 0.0
2017-Apr-21 16:00S 22°52' W 043°08'0 0.0
2017-Apr-21 15:30S 22°52' W 043°08'0 0.0
2017-Apr-21 15:00S 22°52' W 043°08'0 0.0
2017-Apr-21 14:30S 22°52' W 043°08'0 0.0
2017-Apr-21 13:30S 22°52' W 043°08'0 0.0
2017-Apr-21 13:00S 22°52' W 043°08'0 0.0
2017-Apr-21 12:30S 22°52' W 043°08'0 0.0
2017-Apr-21 12:00S 22°52' W 043°08'0 0.0
2017-Apr-21 11:30S 22°52' W 043°08'0 0.0
2017-Apr-21 11:00S 22°52' W 043°08'0 0.0
2017-Apr-21 10:30S 22°52' W 043°08'0 0.0
2017-Apr-21 10:00S 22°52' W 043°08'0 0.0
2017-Apr-21 09:30S 22°52' W 043°08'0 0.0
2017-Apr-21 09:00S 22°52' W 043°08'0 0.0
2017-Apr-21 08:30S 22°52' W 043°08'0 0.0
2017-Apr-21 08:00S 22°52' W 043°08'0 0.0
2017-Apr-21 07:30S 22°52' W 043°08'0 0.0
2017-Apr-21 07:00S 22°52' W 043°08'0 0.0
2017-Apr-21 06:30S 22°52' W 043°08'0 0.0
2017-Apr-21 06:00S 22°52' W 043°08'0 0.0
2017-Apr-21 05:30S 22°52' W 043°08'0 0.0
2017-Apr-21 05:00S 22°52' W 043°08'0 0.0
2017-Apr-21 04:30S 22°52' W 043°08'0 0.0
2017-Apr-21 04:00S 22°52' W 043°08'0 0.0
2017-Apr-21 03:30S 22°52' W 043°08'0 0.0
2017-Apr-21 03:00S 22°52' W 043°08'0 0.0
2017-Apr-21 02:30S 22°52' W 043°08'0 0.0
2017-Apr-21 02:00S 22°52' W 043°08'0 0.0
2017-Apr-21 01:30S 22°52' W 043°08'0 0.0
2017-Apr-21 01:00S 22°52' W 043°08'0 0.0
2017-Apr-21 00:30S 22°52' W 043°08'0 0.0
2017-Apr-21 00:00S 22°52' W 043°08'0 0.0
2017-Apr-20 23:30S 22°52' W 043°08'0 0.0
2017-Apr-20 23:00S 22°52' W 043°08'0 0.0
2017-Apr-20 22:30S 22°52' W 043°08'0 0.0
2017-Apr-20 22:00S 22°52' W 043°08'0 0.0
2017-Apr-20 21:30S 22°52' W 043°08'0 0.0
2017-Apr-20 21:00S 22°52' W 043°08'0 0.0
2017-Apr-20 20:30S 22°52' W 043°08'0 0.0
2017-Apr-20 20:00S 22°52' W 043°08'0 0.0
2017-Apr-20 19:30S 22°52' W 043°08'0 0.0
2017-Apr-20 19:00S 22°52' W 043°08'0 0.0
2017-Apr-20 18:30S 22°52' W 043°08'0 0.0
2017-Apr-20 18:00S 22°52' W 043°08'0 0.0
2017-Apr-20 17:30S 22°52' W 043°08'0 0.0
2017-Apr-20 17:00S 22°52' W 043°08'0 0.0
2017-Apr-20 16:30S 22°52' W 043°08'0 0.0
2017-Apr-20 16:00S 22°52' W 043°08'0 0.0
2017-Apr-20 15:30S 22°52' W 043°08'0 0.0
2017-Apr-20 15:00S 22°52' W 043°08'0 0.0
2017-Apr-20 14:00S 22°52' W 043°08'0 0.0
2017-Apr-20 13:30S 22°52' W 043°08'0 0.0
2017-Apr-20 12:17S 22°52' W 043°08'0 0.0
2017-Apr-20 12:00S 22°52' W 043°08'0 0.0
2017-Apr-20 11:30S 22°52' W 043°08'0 0.0
2017-Apr-20 11:00S 22°52' W 043°08'0 0.0
2017-Apr-20 10:30S 22°52' W 043°08'0 0.0
2017-Apr-20 10:00S 22°52' W 043°08'0 0.0
2017-Apr-20 09:30S 22°52' W 043°08'0 0.0
2017-Apr-20 09:00S 22°52' W 043°08'0 0.0
2017-Apr-20 08:30S 22°52' W 043°08'0 0.0
2017-Apr-20 08:00S 22°52' W 043°08'0 0.0
2017-Apr-20 07:30S 22°52' W 043°08'0 0.0
2017-Apr-20 07:00S 22°52' W 043°08'0 0.0
2017-Apr-20 06:30S 22°52' W 043°08'0 0.0
2017-Apr-20 06:00S 22°52' W 043°08'0 0.0
2017-Apr-20 05:30S 22°52' W 043°08'0 0.0
2017-Apr-20 05:00S 22°52' W 043°08'0 0.0
2017-Apr-20 04:30S 22°52' W 043°08'0 0.0
2017-Apr-20 04:00S 22°52' W 043°08'0 0.0
2017-Apr-20 03:30S 22°52' W 043°08'0 0.0
2017-Apr-20 03:00S 22°52' W 043°08'0 0.0
2017-Apr-20 02:30S 22°52' W 043°08'0 0.0
2017-Apr-20 02:00S 22°52' W 043°08'0 0.0
2017-Apr-20 01:30S 22°52' W 043°08'0 0.0
2017-Apr-20 01:00S 22°52' W 043°08'0 0.0
2017-Apr-20 00:30S 22°52' W 043°08'0 0.0
2017-Apr-20 00:00S 22°52' W 043°08'0 0.0
2017-Apr-19 23:30S 22°52' W 043°08'0 0.0
2017-Apr-19 23:00S 22°52' W 043°08'0 0.0
2017-Apr-19 22:30S 22°52' W 043°08'0 0.0
2017-Apr-19 22:00S 22°52' W 043°08'0 0.0
2017-Apr-19 21:30S 22°52' W 043°08'0 0.0
2017-Apr-19 21:00S 22°52' W 043°08'0 0.0
2017-Apr-19 20:30S 22°52' W 043°08'0 0.0
2017-Apr-19 20:00S 22°52' W 043°08'0 0.0
2017-Apr-19 19:30S 22°52' W 043°08'0 0.1
2017-Apr-19 19:00S 22°52' W 043°08'0 0.0
2017-Apr-19 18:30S 22°52' W 043°08'0 0.1
2017-Apr-19 18:00S 22°52' W 043°08'0 0.8
2017-Apr-19 17:30S 22°52' W 043°09'2 4.5
2017-Apr-19 17:00S 22°54' W 043°09'610.8
2017-Apr-19 16:30S 22°59' W 043°07'9 7.0
2017-Apr-19 15:15S 23°07' W 043°02'1 4.0
2017-Apr-19 14:59S 23°06' W 043°01'5 5.7
2017-Apr-19 14:02S 23°05' W 043°06'610.8
2017-Apr-19 13:29S 22°59' W 043°08'5 9.8
2017-Apr-19 13:00S 22°54' W 043°09'  

Dump ship's entire track history